sensor_id;sensor_type;location;lat;lon;timestamp;pressure;altitude;pressure_sealevel;temperature;humidity
61697;BME280;47610;52.252;20.922;2023-05-10T00:01:29;100878.42;;;10.07;59.30
61697;BME280;47610;52.252;20.922;2023-05-10T00:06:32;100870.77;;;9.97;59.69
61697;BME280;47610;52.252;20.922;2023-05-10T00:11:36;100866.02;;;9.89;60.17
61697;BME280;47610;52.252;20.922;2023-05-10T00:16:39;100860.17;;;9.81;60.69
61697;BME280;47610;52.252;20.922;2023-05-10T00:21:42;100855.13;;;9.73;61.50
61697;BME280;47610;52.252;20.922;2023-05-10T00:26:45;100851.84;;;9.64;61.71
61697;BME280;47610;52.252;20.922;2023-05-10T00:31:49;100845.83;;;9.57;61.94
61697;BME280;47610;52.252;20.922;2023-05-10T00:36:52;100844.65;;;9.51;62.64
61697;BME280;47610;52.252;20.922;2023-05-10T00:41:55;100843.84;;;9.43;63.05
61697;BME280;47610;52.252;20.922;2023-05-10T00:46:59;100841.48;;;9.38;63.15
61697;BME280;47610;52.252;20.922;2023-05-10T00:52:02;100838.24;;;9.33;63.30
61697;BME280;47610;52.252;20.922;2023-05-10T00:57:05;100841.97;;;9.28;63.36
61697;BME280;47610;52.252;20.922;2023-05-10T01:02:09;100840.09;;;9.23;63.30
61697;BME280;47610;52.252;20.922;2023-05-10T01:07:12;100838.77;;;9.19;63.21
61697;BME280;47610;52.252;20.922;2023-05-10T01:12:15;100833.60;;;9.13;63.46
61697;BME280;47610;52.252;20.922;2023-05-10T01:17:19;100828.98;;;9.08;63.37
61697;BME280;47610;52.252;20.922;2023-05-10T01:22:41;100832.05;;;9.04;63.52
61697;BME280;47610;52.252;20.922;2023-05-10T01:28:16;100830.51;;;9.00;63.63
61697;BME280;47610;52.252;20.922;2023-05-10T01:33:26;100831.20;;;8.94;64.19
61697;BME280;47610;52.252;20.922;2023-05-10T01:38:37;100830.38;;;8.86;64.69
61697;BME280;47610;52.252;20.922;2023-05-10T01:43:45;100826.69;;;8.81;64.75
61697;BME280;47610;52.252;20.922;2023-05-10T01:48:54;100821.41;;;8.77;64.91
61697;BME280;47610;52.252;20.922;2023-05-10T01:54:01;100815.95;;;8.71;65.52
61697;BME280;47610;52.252;20.922;2023-05-10T01:59:09;100813.68;;;8.63;66.07
61697;BME280;47610;52.252;20.922;2023-05-10T02:04:16;100806.17;;;8.56;66.09
61697;BME280;47610;52.252;20.922;2023-05-10T02:09:21;100805.25;;;8.53;66.35
61697;BME280;47610;52.252;20.922;2023-05-10T02:14:25;100807.39;;;8.48;66.98
61697;BME280;47610;52.252;20.922;2023-05-10T02:19:30;100809.55;;;8.43;67.59
61697;BME280;47610;52.252;20.922;2023-05-10T02:24:34;100802.81;;;8.38;67.82
61697;BME280;47610;52.252;20.922;2023-05-10T02:29:40;100803.10;;;8.35;68.30
61697;BME280;47610;52.252;20.922;2023-05-10T02:34:44;100799.80;;;8.32;68.61
61697;BME280;47610;52.252;20.922;2023-05-10T02:39:49;100800.19;;;8.28;69.27
61697;BME280;47610;52.252;20.922;2023-05-10T02:44:55;100801.91;;;8.23;69.76
61697;BME280;47610;52.252;20.922;2023-05-10T02:50:00;100800.50;;;8.17;70.52
61697;BME280;47610;52.252;20.922;2023-05-10T02:55:04;100806.80;;;8.14;70.93
61697;BME280;47610;52.252;20.922;2023-05-10T03:00:09;100808.25;;;8.12;71.35
61697;BME280;47610;52.252;20.922;2023-05-10T03:05:13;100808.02;;;8.11;71.88
61697;BME280;47610;52.252;20.922;2023-05-10T03:10:16;100812.05;;;8.10;72.21
61697;BME280;47610;52.252;20.922;2023-05-10T03:15:25;100809.65;;;8.10;72.74
61697;BME280;47610;52.252;20.922;2023-05-10T03:20:38;100809.27;;;8.14;72.72
61697;BME280;47610;52.252;20.922;2023-05-10T03:25:45;100806.64;;;8.47;72.65
61697;BME280;47610;52.252;20.922;2023-05-10T03:30:50;100807.81;;;9.26;70.20
61697;BME280;47610;52.252;20.922;2023-05-10T03:35:55;100809.54;;;9.41;67.56
61697;BME280;47610;52.252;20.922;2023-05-10T03:40:58;100804.73;;;9.15;67.22
61697;BME280;47610;52.252;20.922;2023-05-10T03:46:02;100806.95;;;9.00;67.76
61697;BME280;47610;52.252;20.922;2023-05-10T03:51:06;100804.11;;;8.92;68.04
61697;BME280;47610;52.252;20.922;2023-05-10T03:56:09;100799.16;;;8.91;68.63
61697;BME280;47610;52.252;20.922;2023-05-10T04:01:12;100796.25;;;9.05;68.93
61697;BME280;47610;52.252;20.922;2023-05-10T04:06:16;100800.55;;;10.01;67.21
61697;BME280;47610;52.252;20.922;2023-05-10T04:11:19;100808.78;;;10.83;63.32
61697;BME280;47610;52.252;20.922;2023-05-10T04:16:22;100810.98;;;12.16;58.29
61697;BME280;47610;52.252;20.922;2023-05-10T04:21:25;100812.70;;;13.92;52.29
61697;BME280;47610;52.252;20.922;2023-05-10T04:26:28;100816.44;;;16.10;45.54
61697;BME280;47610;52.252;20.922;2023-05-10T04:31:32;100821.28;;;18.80;36.51
61697;BME280;47610;52.252;20.922;2023-05-10T04:36:35;100829.23;;;20.99;31.42
61697;BME280;47610;52.252;20.922;2023-05-10T04:41:38;100830.15;;;22.96;28.03
61697;BME280;47610;52.252;20.922;2023-05-10T04:46:42;100836.94;;;24.44;25.32
61697;BME280;47610;52.252;20.922;2023-05-10T04:51:45;100840.58;;;25.80;23.48
61697;BME280;47610;52.252;20.922;2023-05-10T04:56:48;100842.21;;;26.65;21.90
61697;BME280;47610;52.252;20.922;2023-05-10T05:01:51;100841.55;;;27.76;20.88
61697;BME280;47610;52.252;20.922;2023-05-10T05:06:54;100837.88;;;29.10;19.92
61697;BME280;47610;52.252;20.922;2023-05-10T05:11:57;100841.37;;;29.78;18.14
61697;BME280;47610;52.252;20.922;2023-05-10T05:17:01;100839.26;;;28.64;18.40
61697;BME280;47610;52.252;20.922;2023-05-10T05:22:04;100841.16;;;26.88;19.10
61697;BME280;47610;52.252;20.922;2023-05-10T05:27:09;100833.95;;;24.68;20.71
61697;BME280;47610;52.252;20.922;2023-05-10T05:32:12;100828.80;;;22.29;22.62
61697;BME280;47610;52.252;20.922;2023-05-10T05:37:16;100825.41;;;20.60;24.45
61697;BME280;47610;52.252;20.922;2023-05-10T05:42:18;100825.69;;;19.48;26.16
61697;BME280;47610;52.252;20.922;2023-05-10T05:47:21;100828.58;;;18.84;27.33
61697;BME280;47610;52.252;20.922;2023-05-10T05:52:24;100827.30;;;18.55;28.18
61697;BME280;47610;52.252;20.922;2023-05-10T05:57:28;100829.03;;;18.41;28.78
61697;BME280;47610;52.252;20.922;2023-05-10T06:02:31;100828.91;;;17.88;29.82
61697;BME280;47610;52.252;20.922;2023-05-10T06:07:34;100829.05;;;18.05;30.05
61697;BME280;47610;52.252;20.922;2023-05-10T06:12:37;100839.66;;;17.56;30.83
61697;BME280;47610;52.252;20.922;2023-05-10T06:17:40;100837.91;;;17.70;31.44
61697;BME280;47610;52.252;20.922;2023-05-10T06:22:44;100832.33;;;18.07;31.67
61697;BME280;47610;52.252;20.922;2023-05-10T06:27:47;100834.09;;;18.66;30.76
61697;BME280;47610;52.252;20.922;2023-05-10T06:32:50;100834.08;;;17.71;31.55
61697;BME280;47610;52.252;20.922;2023-05-10T06:37:53;100830.58;;;17.48;32.92
61697;BME280;47610;52.252;20.922;2023-05-10T06:42:56;100832.66;;;17.50;33.12
61697;BME280;47610;52.252;20.922;2023-05-10T06:48:00;100830.66;;;18.15;32.92
61697;BME280;47610;52.252;20.922;2023-05-10T06:53:03;100832.25;;;19.75;30.66
61697;BME280;47610;52.252;20.922;2023-05-10T06:58:06;100826.14;;;19.48;29.95
61697;BME280;47610;52.252;20.922;2023-05-10T07:03:09;100825.19;;;19.21;30.77
61697;BME280;47610;52.252;20.922;2023-05-10T07:08:13;100827.96;;;19.29;30.41
61697;BME280;47610;52.252;20.922;2023-05-10T07:13:16;100824.38;;;19.65;30.39
61697;BME280;47610;52.252;20.922;2023-05-10T07:18:19;100828.92;;;21.33;27.83
61697;BME280;47610;52.252;20.922;2023-05-10T07:23:22;100828.86;;;21.47;27.38
61697;BME280;47610;52.252;20.922;2023-05-10T07:28:25;100821.11;;;20.62;27.40
61697;BME280;47610;52.252;20.922;2023-05-10T07:33:29;100826.72;;;20.77;27.03
61697;BME280;47610;52.252;20.922;2023-05-10T07:38:32;100826.77;;;21.41;26.56
61697;BME280;47610;52.252;20.922;2023-05-10T07:43:35;100829.02;;;22.02;25.33
61697;BME280;47610;52.252;20.922;2023-05-10T07:48:40;100827.02;;;21.70;24.63
61697;BME280;47610;52.252;20.922;2023-05-10T07:53:43;100829.05;;;22.80;22.15
61697;BME280;47610;52.252;20.922;2023-05-10T07:58:46;100827.34;;;23.06;21.07
61697;BME280;47610;52.252;20.922;2023-05-10T08:03:50;100820.86;;;22.92;21.14
61697;BME280;47610;52.252;20.922;2023-05-10T08:08:53;100819.14;;;23.30;20.00
61697;BME280;47610;52.252;20.922;2023-05-10T08:13:56;100821.86;;;22.60;20.41
61697;BME280;47610;52.252;20.922;2023-05-10T08:18:59;100815.70;;;22.16;20.98
61697;BME280;47610;52.252;20.922;2023-05-10T08:24:03;100808.18;;;23.66;19.68
61697;BME280;47610;52.252;20.922;2023-05-10T08:29:06;100812.28;;;25.15;18.96
61697;BME280;47610;52.252;20.922;2023-05-10T08:34:09;100804.83;;;26.41;17.94
61697;BME280;47610;52.252;20.922;2023-05-10T08:39:13;100799.98;;;26.78;17.14
61697;BME280;47610;52.252;20.922;2023-05-10T08:44:16;100814.77;;;27.57;16.28
61697;BME280;47610;52.252;20.922;2023-05-10T08:49:21;100829.11;;;27.70;15.25
61697;BME280;47610;52.252;20.922;2023-05-10T08:54:25;100816.71;;;27.95;15.55
61697;BME280;47610;52.252;20.922;2023-05-10T08:59:28;100819.31;;;28.28;15.48
61697;BME280;47610;52.252;20.922;2023-05-10T09:04:32;100806.24;;;29.00;15.63
61697;BME280;47610;52.252;20.922;2023-05-10T09:09:36;100808.83;;;29.48;15.16
61697;BME280;47610;52.252;20.922;2023-05-10T09:14:39;100801.89;;;30.10;14.73
61697;BME280;47610;52.252;20.922;2023-05-10T09:19:43;100806.50;;;30.23;14.06
61697;BME280;47610;52.252;20.922;2023-05-10T09:24:47;100784.64;;;29.40;14.37
61697;BME280;47610;52.252;20.922;2023-05-10T09:29:50;100782.27;;;29.38;14.61
61697;BME280;47610;52.252;20.922;2023-05-10T09:34:53;100785.36;;;29.54;14.35
61697;BME280;47610;52.252;20.922;2023-05-10T09:39:57;100782.27;;;29.14;14.73
61697;BME280;47610;52.252;20.922;2023-05-10T09:45:03;100787.77;;;29.28;14.78
61697;BME280;47610;52.252;20.922;2023-05-10T09:50:08;100779.44;;;28.35;15.16
61697;BME280;47610;52.252;20.922;2023-05-10T09:55:12;100782.38;;;26.94;16.12
61697;BME280;47610;52.252;20.922;2023-05-10T10:00:19;100777.46;;;25.23;17.56
61697;BME280;47610;52.252;20.922;2023-05-10T10:05:22;100766.51;;;23.90;18.78
61697;BME280;47610;52.252;20.922;2023-05-10T10:10:32;100763.67;;;22.78;19.45
61697;BME280;47610;52.252;20.922;2023-05-10T10:15:36;100762.75;;;21.67;20.30
61697;BME280;47610;52.252;20.922;2023-05-10T10:20:39;100752.33;;;20.81;21.76
61697;BME280;47610;52.252;20.922;2023-05-10T10:25:43;100743.08;;;20.41;21.97
61697;BME280;47610;52.252;20.922;2023-05-10T10:30:48;100746.08;;;20.05;22.40
61697;BME280;47610;52.252;20.922;2023-05-10T10:35:53;100735.23;;;19.79;22.43
61697;BME280;47610;52.252;20.922;2023-05-10T10:41:07;100729.89;;;19.58;23.43
61697;BME280;47610;52.252;20.922;2023-05-10T10:46:17;100723.15;;;19.58;23.34
61697;BME280;47610;52.252;20.922;2023-05-10T10:51:20;100733.27;;;19.40;23.24
61697;BME280;47610;52.252;20.922;2023-05-10T10:56:23;100723.75;;;19.01;23.52
61697;BME280;47610;52.252;20.922;2023-05-10T11:01:34;100713.67;;;18.87;23.80
61697;BME280;47610;52.252;20.922;2023-05-10T11:06:37;100713.95;;;18.85;23.64
61697;BME280;47610;52.252;20.922;2023-05-10T11:11:52;100711.59;;;18.90;23.41
61697;BME280;47610;52.252;20.922;2023-05-10T11:16:56;100720.59;;;18.87;23.79
61697;BME280;47610;52.252;20.922;2023-05-10T11:22:13;100712.52;;;18.68;23.74
61697;BME280;47610;52.252;20.922;2023-05-10T11:27:17;100702.48;;;18.50;24.04
61697;BME280;47610;52.252;20.922;2023-05-10T11:32:20;100712.72;;;18.38;24.31
61697;BME280;47610;52.252;20.922;2023-05-10T11:37:24;100692.14;;;18.27;24.68
61697;BME280;47610;52.252;20.922;2023-05-10T11:42:28;100693.80;;;18.36;25.12
61697;BME280;47610;52.252;20.922;2023-05-10T11:47:32;100702.15;;;18.22;25.03
61697;BME280;47610;52.252;20.922;2023-05-10T11:52:38;100687.09;;;18.09;25.61
61697;BME280;47610;52.252;20.922;2023-05-10T11:57:41;100687.27;;;18.11;25.86
61697;BME280;47610;52.252;20.922;2023-05-10T12:02:44;100682.15;;;18.04;25.76
61697;BME280;47610;52.252;20.922;2023-05-10T12:07:47;100679.42;;;17.93;26.15
61697;BME280;47610;52.252;20.922;2023-05-10T12:12:53;100675.37;;;17.87;26.61
61697;BME280;47610;52.252;20.922;2023-05-10T12:17:57;100681.55;;;17.78;26.66
61697;BME280;47610;52.252;20.922;2023-05-10T12:23:01;100681.81;;;17.64;26.65
61697;BME280;47610;52.252;20.922;2023-05-10T12:28:06;100674.89;;;17.54;26.91
61697;BME280;47610;52.252;20.922;2023-05-10T12:33:11;100680.20;;;17.50;26.66
61697;BME280;47610;52.252;20.922;2023-05-10T12:38:28;100679.69;;;17.48;27.10
61697;BME280;47610;52.252;20.922;2023-05-10T12:43:32;100679.61;;;17.43;27.49
61697;BME280;47610;52.252;20.922;2023-05-10T12:48:36;100669.46;;;17.38;27.40
61697;BME280;47610;52.252;20.922;2023-05-10T12:53:39;100658.12;;;17.33;27.35
61697;BME280;47610;52.252;20.922;2023-05-10T12:58:42;100660.27;;;17.31;27.65
61697;BME280;47610;52.252;20.922;2023-05-10T13:03:46;100656.39;;;17.28;27.62
61697;BME280;47610;52.252;20.922;2023-05-10T13:08:49;100655.77;;;17.26;27.72
61697;BME280;47610;52.252;20.922;2023-05-10T13:13:52;100653.80;;;17.25;27.67
61697;BME280;47610;52.252;20.922;2023-05-10T13:18:55;100656.53;;;17.19;28.01
61697;BME280;47610;52.252;20.922;2023-05-10T13:23:58;100646.44;;;17.13;28.12
61697;BME280;47610;52.252;20.922;2023-05-10T13:29:02;100647.42;;;17.14;27.77
61697;BME280;47610;52.252;20.922;2023-05-10T13:34:06;100640.52;;;17.12;28.19
61697;BME280;47610;52.252;20.922;2023-05-10T13:39:09;100644.18;;;17.04;28.26
61697;BME280;47610;52.252;20.922;2023-05-10T13:44:14;100642.23;;;16.98;28.72
61697;BME280;47610;52.252;20.922;2023-05-10T13:49:17;100634.55;;;16.93;28.55
61697;BME280;47610;52.252;20.922;2023-05-10T13:54:21;100627.81;;;16.88;28.47
61697;BME280;47610;52.252;20.922;2023-05-10T13:59:24;100628.64;;;16.89;28.82
61697;BME280;47610;52.252;20.922;2023-05-10T14:04:27;100621.75;;;16.91;29.01
61697;BME280;47610;52.252;20.922;2023-05-10T14:09:30;100621.98;;;16.90;28.45
61697;BME280;47610;52.252;20.922;2023-05-10T14:14:33;100618.69;;;16.86;28.16
61697;BME280;47610;52.252;20.922;2023-05-10T14:19:37;100614.73;;;16.84;28.71
61697;BME280;47610;52.252;20.922;2023-05-10T14:24:40;100616.15;;;16.80;28.81
61697;BME280;47610;52.252;20.922;2023-05-10T14:29:43;100613.52;;;16.79;28.68
61697;BME280;47610;52.252;20.922;2023-05-10T14:34:46;100616.76;;;16.74;28.73
61697;BME280;47610;52.252;20.922;2023-05-10T14:39:50;100618.92;;;16.69;29.59
61697;BME280;47610;52.252;20.922;2023-05-10T14:44:53;100606.28;;;16.62;29.47
61697;BME280;47610;52.252;20.922;2023-05-10T14:49:56;100606.63;;;16.59;29.33
61697;BME280;47610;52.252;20.922;2023-05-10T14:54:59;100610.80;;;16.59;29.24
61697;BME280;47610;52.252;20.922;2023-05-10T15:00:03;100606.67;;;16.59;28.94
61697;BME280;47610;52.252;20.922;2023-05-10T15:05:07;100615.30;;;16.59;29.13
61697;BME280;47610;52.252;20.922;2023-05-10T15:10:11;100612.48;;;16.55;28.89
61697;BME280;47610;52.252;20.922;2023-05-10T15:15:14;100603.52;;;16.51;29.19
61697;BME280;47610;52.252;20.922;2023-05-10T15:20:17;100603.96;;;16.48;29.50
61697;BME280;47610;52.252;20.922;2023-05-10T15:25:21;100599.63;;;16.48;29.91
61697;BME280;47610;52.252;20.922;2023-05-10T15:30:24;100601.55;;;16.49;30.06
61697;BME280;47610;52.252;20.922;2023-05-10T15:35:28;100597.09;;;16.49;30.30
61697;BME280;47610;52.252;20.922;2023-05-10T15:40:31;100592.36;;;16.50;30.40
61697;BME280;47610;52.252;20.922;2023-05-10T15:45:34;100585.52;;;16.50;30.53
61697;BME280;47610;52.252;20.922;2023-05-10T15:50:37;100591.63;;;16.48;30.66
61697;BME280;47610;52.252;20.922;2023-05-10T15:55:40;100591.15;;;16.44;30.77
61697;BME280;47610;52.252;20.922;2023-05-10T16:00:44;100594.48;;;16.44;30.42
61697;BME280;47610;52.252;20.922;2023-05-10T16:05:47;100596.99;;;16.44;30.23
61697;BME280;47610;52.252;20.922;2023-05-10T16:10:51;100591.42;;;16.39;30.16
61697;BME280;47610;52.252;20.922;2023-05-10T16:15:54;100593.30;;;16.35;29.59
61697;BME280;47610;52.252;20.922;2023-05-10T16:20:59;100596.77;;;16.30;29.55
61697;BME280;47610;52.252;20.922;2023-05-10T16:26:02;100596.81;;;16.28;29.58
61697;BME280;47610;52.252;20.922;2023-05-10T16:31:05;100596.52;;;16.25;28.69
61697;BME280;47610;52.252;20.922;2023-05-10T16:36:09;100597.15;;;16.20;28.44
61697;BME280;47610;52.252;20.922;2023-05-10T16:41:12;100596.30;;;16.15;28.22
61697;BME280;47610;52.252;20.922;2023-05-10T16:46:15;100598.73;;;16.13;28.21
61697;BME280;47610;52.252;20.922;2023-05-10T16:51:18;100605.23;;;16.10;28.10
61697;BME280;47610;52.252;20.922;2023-05-10T16:56:21;100606.23;;;16.07;27.79
61697;BME280;47610;52.252;20.922;2023-05-10T17:01:25;100608.05;;;16.01;27.42
61697;BME280;47610;52.252;20.922;2023-05-10T17:06:28;100611.02;;;15.95;27.43
61697;BME280;47610;52.252;20.922;2023-05-10T17:11:31;100612.63;;;15.95;27.71
61697;BME280;47610;52.252;20.922;2023-05-10T17:16:35;100620.35;;;15.91;27.48
61697;BME280;47610;52.252;20.922;2023-05-10T17:21:38;100626.89;;;15.86;27.88
61697;BME280;47610;52.252;20.922;2023-05-10T17:26:41;100621.22;;;15.80;27.89
61697;BME280;47610;52.252;20.922;2023-05-10T17:31:45;100625.47;;;15.74;28.21
61697;BME280;47610;52.252;20.922;2023-05-10T17:36:48;100631.87;;;15.66;28.42
61697;BME280;47610;52.252;20.922;2023-05-10T17:41:51;100637.59;;;15.56;28.61
61697;BME280;47610;52.252;20.922;2023-05-10T17:46:54;100637.30;;;15.45;29.03
61697;BME280;47610;52.252;20.922;2023-05-10T17:51:57;100638.79;;;15.32;29.53
61697;BME280;47610;52.252;20.922;2023-05-10T17:57:01;100644.08;;;15.20;30.09
61697;BME280;47610;52.252;20.922;2023-05-10T18:02:05;100651.00;;;15.09;30.52
61697;BME280;47610;52.252;20.922;2023-05-10T18:07:07;100653.46;;;14.99;30.54
61697;BME280;47610;52.252;20.922;2023-05-10T18:12:10;100650.90;;;14.89;30.85
61697;BME280;47610;52.252;20.922;2023-05-10T18:17:14;100651.65;;;14.78;31.11
61697;BME280;47610;52.252;20.922;2023-05-10T18:22:17;100660.25;;;14.69;31.39
61697;BME280;47610;52.252;20.922;2023-05-10T18:27:20;100661.69;;;14.61;31.72
61697;BME280;47610;52.252;20.922;2023-05-10T18:32:26;100674.02;;;14.51;32.08
61697;BME280;47610;52.252;20.922;2023-05-10T18:37:29;100679.19;;;14.43;32.16
61697;BME280;47610;52.252;20.922;2023-05-10T18:42:32;100682.08;;;14.38;32.44
61697;BME280;47610;52.252;20.922;2023-05-10T18:47:35;100689.02;;;14.35;32.63
61697;BME280;47610;52.252;20.922;2023-05-10T18:52:39;100693.75;;;14.34;32.91
61697;BME280;47610;52.252;20.922;2023-05-10T18:57:42;100697.31;;;14.33;33.09
61697;BME280;47610;52.252;20.922;2023-05-10T19:02:45;100697.35;;;14.29;33.15
61697;BME280;47610;52.252;20.922;2023-05-10T19:07:49;100697.23;;;14.26;33.13
61697;BME280;47610;52.252;20.922;2023-05-10T19:12:52;100694.32;;;14.21;33.07
61697;BME280;47610;52.252;20.922;2023-05-10T19:17:55;100694.04;;;14.17;33.24
61697;BME280;47610;52.252;20.922;2023-05-10T19:22:58;100693.14;;;14.13;33.20
61697;BME280;47610;52.252;20.922;2023-05-10T19:28:01;100692.91;;;14.08;33.42
61697;BME280;47610;52.252;20.922;2023-05-10T19:33:05;100689.51;;;14.04;33.59
61697;BME280;47610;52.252;20.922;2023-05-10T19:38:08;100697.69;;;14.00;33.50
61697;BME280;47610;52.252;20.922;2023-05-10T19:43:11;100697.21;;;13.97;33.66
61697;BME280;47610;52.252;20.922;2023-05-10T19:48:14;100702.05;;;13.95;33.59
61697;BME280;47610;52.252;20.922;2023-05-10T19:53:18;100698.47;;;13.94;33.61
61697;BME280;47610;52.252;20.922;2023-05-10T19:58:21;100698.77;;;13.91;33.77
61697;BME280;47610;52.252;20.922;2023-05-10T20:03:24;100702.45;;;13.87;33.97
61697;BME280;47610;52.252;20.922;2023-05-10T20:08:27;100704.92;;;13.83;34.16
61697;BME280;47610;52.252;20.922;2023-05-10T20:13:31;100706.97;;;13.76;34.45
61697;BME280;47610;52.252;20.922;2023-05-10T20:18:34;100708.46;;;13.68;34.82
61697;BME280;47610;52.252;20.922;2023-05-10T20:23:37;100711.77;;;13.57;35.32
61697;BME280;47610;52.252;20.922;2023-05-10T20:28:40;100707.52;;;13.47;35.59
61697;BME280;47610;52.252;20.922;2023-05-10T20:33:44;100714.10;;;13.38;36.15
61697;BME280;47610;52.252;20.922;2023-05-10T20:38:47;100713.27;;;13.31;36.58
61697;BME280;47610;52.252;20.922;2023-05-10T20:43:50;100713.73;;;13.22;36.69
61697;BME280;47610;52.252;20.922;2023-05-10T20:48:53;100717.48;;;13.15;37.14
61697;BME280;47610;52.252;20.922;2023-05-10T20:53:57;100718.95;;;13.06;37.75
61697;BME280;47610;52.252;20.922;2023-05-10T20:59:00;100728.73;;;12.97;38.58
61697;BME280;47610;52.252;20.922;2023-05-10T21:04:04;100733.52;;;12.88;39.01
61697;BME280;47610;52.252;20.922;2023-05-10T21:09:07;100730.02;;;12.77;39.56
61697;BME280;47610;52.252;20.922;2023-05-10T21:14:10;100737.34;;;12.69;39.83
61697;BME280;47610;52.252;20.922;2023-05-10T21:19:14;100739.73;;;12.60;40.52
61697;BME280;47610;52.252;20.922;2023-05-10T21:24:17;100738.02;;;12.46;41.34
61697;BME280;47610;52.252;20.922;2023-05-10T21:29:20;100740.73;;;12.36;41.76
61697;BME280;47610;52.252;20.922;2023-05-10T21:34:23;100742.73;;;12.26;42.29
61697;BME280;47610;52.252;20.922;2023-05-10T21:39:26;100738.77;;;12.17;42.97
61697;BME280;47610;52.252;20.922;2023-05-10T21:44:30;100741.59;;;12.09;43.49
61697;BME280;47610;52.252;20.922;2023-05-10T21:49:33;100745.45;;;12.01;43.97
61697;BME280;47610;52.252;20.922;2023-05-10T21:54:36;100751.58;;;11.93;44.26
61697;BME280;47610;52.252;20.922;2023-05-10T21:59:39;100750.77;;;11.85;44.41
61697;BME280;47610;52.252;20.922;2023-05-10T22:04:43;100747.14;;;11.79;44.92
61697;BME280;47610;52.252;20.922;2023-05-10T22:09:46;100754.25;;;11.73;45.13
61697;BME280;47610;52.252;20.922;2023-05-10T22:14:49;100759.64;;;11.67;45.45
61697;BME280;47610;52.252;20.922;2023-05-10T22:19:52;100763.21;;;11.61;45.83
61697;BME280;47610;52.252;20.922;2023-05-10T22:24:56;100765.09;;;11.54;46.22
61697;BME280;47610;52.252;20.922;2023-05-10T22:29:59;100770.42;;;11.48;46.60
61697;BME280;47610;52.252;20.922;2023-05-10T22:35:02;100769.96;;;11.43;46.92
61697;BME280;47610;52.252;20.922;2023-05-10T22:40:07;100773.02;;;11.38;47.08
61697;BME280;47610;52.252;20.922;2023-05-10T22:45:12;100774.56;;;11.33;47.41
61697;BME280;47610;52.252;20.922;2023-05-10T22:50:16;100779.52;;;11.28;47.65
61697;BME280;47610;52.252;20.922;2023-05-10T22:55:19;100783.08;;;11.22;47.98
61697;BME280;47610;52.252;20.922;2023-05-10T23:00:23;100783.16;;;11.17;48.13
61697;BME280;47610;52.252;20.922;2023-05-10T23:05:27;100786.55;;;11.12;48.17
61697;BME280;47610;52.252;20.922;2023-05-10T23:10:30;100787.86;;;11.06;48.64
61697;BME280;47610;52.252;20.922;2023-05-10T23:15:33;100788.48;;;11.02;48.72
61697;BME280;47610;52.252;20.922;2023-05-10T23:20:36;100789.09;;;10.97;48.86
61697;BME280;47610;52.252;20.922;2023-05-10T23:25:39;100783.60;;;10.91;49.02
61697;BME280;47610;52.252;20.922;2023-05-10T23:30:42;100788.77;;;10.87;49.22
61697;BME280;47610;52.252;20.922;2023-05-10T23:35:46;100785.56;;;10.83;49.33
61697;BME280;47610;52.252;20.922;2023-05-10T23:40:49;100787.45;;;10.78;49.21
61697;BME280;47610;52.252;20.922;2023-05-10T23:45:56;100788.64;;;10.76;49.07
61697;BME280;47610;52.252;20.922;2023-05-10T23:50:59;100785.61;;;10.72;49.04
61697;BME280;47610;52.252;20.922;2023-05-10T23:56:03;100789.38;;;10.71;48.47
